Pahranagat National Wildlife Refuge, Nevada Weather observations

Data are for 10 minute period ending at time listed.
 Day   Time   Solar   Ave.   Ave.  Ave.  Vector  Max.   Baro.   Total    
  of    of     Rad.   Air    Rel.  Wind   Wind   Wind  Press.  Precip.   
Year   Day            Temp.  Hum.  Speed  Dir.   Gust                    
2015   (PST)  Kw/m2    F      %     mph   deg.    mph    mb.     in.     
-------------------------------------------------------------------------
  56   21:50   0.00   43.2    30    4.0   354     5.1   902.6    0.00 
  56   22:00   0.00   42.1    31    3.2    32     4.3   902.6    0.00 
  56   22:10   0.00   40.1    35    1.0   139     2.0   902.5    0.00 
  56   22:20   0.00   38.7    37    1.7    86     2.7   902.4    0.00 
  56   22:30   0.00   40.0    34    2.1   127     3.8   902.5    0.00 
  56   22:40   0.00   40.5    33    2.1    84     4.2   902.5    0.00 
  56   22:50   0.00   40.5    34    4.2     6     5.7   902.3    0.00 
  56   23:00   0.00   34.9    46    3.7   282     5.7   902.3    0.00 
  56   23:10   0.00   37.0    43    2.0   288     4.2   902.2    0.00 
  56   23:20   0.00   37.2    43    2.0   300     3.1   902.1    0.00 
  56   23:30   0.00   37.5    41    2.9   302     3.9   901.9    0.00 
  56   23:40   0.00   37.7    41    3.6   330     5.8   901.9    0.00 
  56   23:50   0.00   35.4    45    4.2   328     6.4   901.8    0.00 
  57    0:00   0.00   34.8    47    5.1     0     6.8   901.6    0.00 
  57    0:10   0.00   34.5    47    2.6   237     4.2   901.6    0.00 
  57    0:20   0.00   35.7    44    2.6   174     4.2   901.6    0.00 
  57    0:30   0.00   37.2    45    3.7   192     4.8   901.6    0.00 
  57    0:40   0.00   38.7    39    4.3   271     5.3   901.7    0.00 
  57    0:50   0.00   37.0    43    4.2   336     5.0   901.8    0.00 
  57    1:00   0.00   37.4    42    2.8    38     5.6   901.7    0.00 
  57    1:10   0.00   38.5    41    2.4   318     5.6   901.8    0.00 
  57    1:20   0.00   39.4    41    2.1   188     3.4   901.7    0.00 
  57    1:30   0.00   38.1    46    1.2   226     2.6   901.7    0.00 
  57    1:40   0.00   38.2    42    0.9   327     1.7   901.6    0.00 
  57    1:50   0.00   38.1    45    1.7   218     3.4   901.6    0.00 
  57    2:00   0.00   37.2    51    1.1   126     2.6   901.5    0.00 
  57    2:10   0.00   39.2    40    0.2   288     1.5   901.6    0.00 
  57    2:20   0.00   41.8    35    2.0     6     3.4   901.4    0.00 
  57    2:30   0.00   42.2    34    2.2   341     4.0   901.2    0.00 
  57    2:40   0.00   39.7    40    3.0   322     4.3   901.0    0.00 
  57    2:50   0.00   39.7    40    2.3   292     3.3   900.8    0.00 
  57    3:00   0.00   41.2    37    1.1   270     3.6   900.7    0.00 
  57    3:10   0.00   38.3    47    3.6   285     4.5   900.8    0.00 
  57    3:20   0.00   36.8    50    2.2   326     3.9   900.7    0.00 
  57    3:30   0.00   37.4    48    1.5   360     3.3   900.5    0.00 
  57    3:40   0.00   37.6    48    0.8   194     2.2   900.4    0.00 
  57    3:50   0.00   38.4    51    1.7   190     3.5   900.2    0.00 
  57    4:00   0.00   37.8    51    0.8   133     2.7   900.0    0.00 
  57    4:10   0.00   39.7    44    3.6   356     4.3   900.0    0.00 
  57    4:20   0.00   39.9    41    3.5   338     5.0   900.1    0.00 
  57    4:30   0.00   40.0    41    3.5   331     4.6   900.2    0.00 
  57    4:40   0.00   40.0    41    4.5   348     6.1   900.1    0.00 
  57    4:50   0.00   40.2    42    4.2   331     5.3   900.0    0.00 
  57    5:00   0.00   40.2    41    4.0   315     5.1   899.9    0.00 
  57    5:10   0.00   39.8    42    4.8   335     6.1   899.9    0.00 
  57    5:20   0.00   39.1    44    3.8   310     4.5   900.0    0.00 
  57    5:30   0.00   38.7    46    3.0   322     6.0   900.0    0.00 
  57    5:40   0.00   39.2    45    3.6   338     6.4   900.2    0.00 
  57    5:50   0.00   39.8    42    5.4   340     9.7   900.2    0.00 
  57    6:00   0.00   40.8    39    5.6   333     8.8   900.2    0.00 
  57    6:10   0.00   40.2    38    5.0   327     8.8   900.2    0.00 
  57    6:20   0.00   38.6    42    5.3   280    10.8   900.2    0.00 
  57    6:30   0.01   39.2    42    5.6   300     9.9   900.2    0.00 
  57    6:40   0.02   40.0    39    4.5   306     7.7   900.3    0.00 
  57    6:50   0.03   39.2    41    3.8   299     6.4   900.4    0.00 
  57    7:00   0.04   39.6    40    3.7   331     5.2   900.5    0.00 
  57    7:10   0.06   39.6    41    3.9   335     5.1   900.5    0.00 
  57    7:20   0.08   40.2    42    4.2   347     6.4   900.5    0.00 
  57    7:30   0.13   41.9    39    3.8   345     6.4   900.7    0.00 
  57    7:40   0.10   42.7    37    4.3   335     8.3   900.7    0.00 
  57    7:50   0.14   43.4    33    9.8   352    13.7   900.6    0.00 
  57    8:00   0.20   45.6    30    9.3   341    14.1   900.7    0.00 
  57    8:10   0.17   45.5    29    8.0   322    11.0   900.8    0.00 
  57    8:20   0.26   46.7    28    8.5   320    12.1   901.0    0.00 
  57    8:30   0.34   48.7    26    8.7   322    12.6   901.1    0.00 
  57    8:40   0.37   49.6    25    6.7   327     9.3   901.1    0.00 
  57    8:50   0.39   50.8    24    5.4   315     9.2   901.1    0.00 
  57    9:00   0.42   51.5    22    5.3   309     9.5   901.1    0.00 
  57    9:10   0.45   52.8    21    4.9   310     8.7   901.2    0.00 
  57    9:20   0.47   53.5    21    4.9   348     9.1   901.1    0.00 
  57    9:30   0.50   54.6    20    4.9   349     8.6   901.1    0.00 
  57    9:40   0.54   56.0    18    5.1   354     9.7   901.1    0.00 
  57    9:50   0.57   57.1    18    6.0   353    10.7   901.0    0.00 
  57   10:00   0.56   58.2    17    6.5     1    10.6   900.9    0.00 
  57   10:10   0.57   58.5    16    5.5     3     9.9   900.8    0.00 
  57   10:20   0.59   59.4    15    5.1   359    10.8   900.6    0.00 
  57   10:30   0.61   60.2    15    4.0   350     9.1   900.4    0.00 
  57   10:40   0.62   61.6    14    4.2   354    10.8   900.2    0.00 
  57   10:50   0.63   62.2    14    6.3     0    12.9   900.0    0.00 
  57   11:00   0.65   63.1    13    8.1   336    13.0   899.8    0.00 
  57   11:10   0.66   62.6    14    7.4   350    13.4   899.5    0.00 
  57   11:20   0.68   63.8    14    8.5   337    13.9   899.3    0.00 
  57   11:30   0.69   64.9    13    7.8   345    14.1   899.1    0.00 
  57   11:40   0.66   64.5    13    9.3   325    15.1   898.9    0.00 
  57   11:50   0.70   64.7    13    7.7   359    12.3   898.6    0.00 
  57   12:00   0.61   64.8    13    7.8     7    15.9   898.3    0.00 
  57   12:10   0.56   64.6    13    7.4   356    14.8   898.1    0.00 
  57   12:20   0.62   64.6    13    4.8     2    11.6   897.9    0.00 
  57   12:30   0.68   65.1    13    8.5    11    13.9   897.7    0.00 
  57   12:40   0.67   65.9    13    8.1   346    13.7   897.6    0.00 
  57   12:50   0.66   65.6    13    8.3   344    13.8   897.4    0.00 
  57   13:00   0.66   65.6    13    9.3   358    16.4   897.3    0.00 
  57   13:10   0.65   65.5    13    7.0   334    15.9   897.2    0.00 
  57   13:20   0.64   66.0    13    8.8   350    14.2   897.0    0.00 
  57   13:30   0.62   67.0    13    8.2   330    13.2   896.8    0.00 
  57   13:40   0.61   66.1    13   11.2   345    17.2   896.8    0.00 
  57   13:50   0.59   66.3    13   10.4   331    19.3   896.6    0.00 
  57   14:00   0.57   66.3    13    6.7   332    11.6   896.5    0.00 
  57   14:10   0.56   65.9    13    5.4   331    10.8   896.4    0.00 
  57   14:20   0.55   66.2    13    5.1   336    14.7   896.3    0.00 
  57   14:30   0.48   66.7    12    5.9   360    14.0   896.1    0.00 
  57   14:40   0.20   64.6    13    5.9    10    11.5   896.0    0.00 
  57   14:50   0.17   62.3    14    4.8   348     7.5   896.0    0.00 
  57   15:00   0.33   65.0    13    5.5   341    22.6   896.0    0.00 
  57   15:10   0.45   66.2    12    7.1   306    13.7   896.0    0.00 
  57   15:20   0.42   66.4    12    5.4   336    12.1   895.8    0.00 
  57   15:30   0.37   66.2    12    9.1   339    15.0   895.7    0.00 
  57   15:40   0.33   65.5    12    9.3   349    15.2   895.6    0.00 
  57   15:50   0.30   65.6    12    6.4    22    11.2   895.6    0.00 
  57   16:00   0.27   65.1    12    7.6   346    12.9   895.6    0.00 
  57   16:10   0.24   64.7    12    6.9   346    11.0   895.5    0.00 
  57   16:20   0.20   64.5    12    6.9   348    13.7   895.4    0.00 
  57   16:30   0.17   64.0    12    6.8   319    11.8   895.6    0.00 
  57   16:40   0.14   63.2    13    7.9   325    11.1   895.6    0.00 
  57   16:50   0.11   62.3    13    5.2   329     9.3   895.7    0.00 
  57   17:00   0.06   61.3    14    4.2   339     8.3   895.8    0.00 
  57   17:10   0.02   57.6    15    5.6   340    10.0   895.8    0.00 
  57   17:20   0.01   55.1    17    5.0   340     6.6   896.0    0.00 
  57   17:30   0.01   52.9    20    4.8   339     6.8   896.0    0.00 
  57   17:40   0.00   53.3    19    4.0   347     7.2   895.9    0.00 
  57   17:50   0.00   49.8    22    3.9   330     5.6   896.1    0.00 
  57   18:00   0.00   53.5    21    6.8    24    14.0   896.1    0.00 
  57   18:10   0.00   57.0    19   10.4    30    16.4   896.1    0.00 
  57   18:20   0.00   56.4    20    9.3    20    15.0   896.3    0.00 
  57   18:30   0.00   56.2    20   10.4    12    16.8   896.6    0.00 
  57   18:40   0.00   53.4    22    4.5   337     8.2   896.8    0.00 
  57   18:50   0.00   52.8    23    7.8   347    15.0   897.0    0.00 
  57   19:00   0.00   54.0    22    6.7   352    12.2   897.2    0.00 
  57   19:10   0.00   53.4    22    8.0   338    11.6   897.3    0.00 
  57   19:20   0.00   52.6    23    6.6   332     9.8   897.3    0.00 
  57   19:30   0.00   49.9    25    5.7   349     8.4   897.4    0.00 
  57   19:40   0.00   50.1    25    6.4   352    10.2   897.5    0.00 
  57   19:50   0.00   50.4    25    7.2   352    12.2   897.6    0.00 
  57   20:00   0.00   49.9    26    6.6   352    12.6   897.7    0.00 
  57   20:10   0.00   49.0    27    6.8   337     9.7   897.8    0.00 
  57   20:20   0.00   47.5    29    4.9   344     7.4   897.9    0.00 
  57   20:30   0.00   47.0    29    6.0   344     8.6   898.0    0.00 
  57   20:40   0.00   46.7    29    5.3   345     7.4   898.0    0.00 
  57   20:50   0.00   45.3    31    5.5   346     8.3   898.0    0.00 
  57   21:00   0.00   46.2    30    6.7   346    10.4   898.0    0.00 
  57   21:10   0.00   46.3    30    5.1   342     8.0   898.1    0.00 
  57   21:20   0.00   45.9    29    4.7   350     6.9   898.2    0.00 
  57   21:30   0.00   46.1    29    6.7   356    10.7   898.2    0.00 
  57   21:40   0.00   47.3    27    6.8   358    10.4   898.2    0.00 

Return to Pahranagat N. Wildlife Refuge graphs page.


Western Regional Climate Center,wrcc@dri.edu